Time;durP1;ratioP1;P1;durP2;ratioP2;P2;SDS_P1;SDS_P2;PMS_P1;PMS_P2;Temp;Humidity;BMP_temperature;BMP_pressure;BME280_temperature;BME280_humidity;BME280_pressure;Samples;Min_cycle;Max_cycle;Signal;HPM_P1;HPM_P2
2023/06/25 00:00:38;;;;;;;3.40;2.93;;;;;;;;;;4955123;29;20379;-76
2023/06/25 00:03:04;;;;;;;7.13;3.77;;;;;;;;;;4955519;29;20557;-76
2023/06/25 00:05:30;;;;;;;8.07;3.40;;;;;;;;;;4955835;29;20371;-76
2023/06/25 00:07:56;;;;;;;3.90;3.20;;;;;;;;;;4954765;29;20414;-76
2023/06/25 00:10:22;;;;;;;3.37;2.83;;;;;;;;;;4955410;29;20400;-76
2023/06/25 00:12:48;;;;;;;4.80;3.67;;;;;;;;;;4956014;29;20409;-76
2023/06/25 00:15:14;;;;;;;4.27;3.50;;;;;;;;;;4955202;29;20402;-76
2023/06/25 00:17:40;;;;;;;5.60;3.43;;;;;;;;;;4955481;29;20471;-76
2023/06/25 00:20:08;;;;;;;4.23;3.00;;;;;;;;;;4922870;29;20424;-76
2023/06/25 00:22:34;;;;;;;6.57;3.33;;;;;;;;;;4954900;29;20456;-77
2023/06/25 00:25:00;;;;;;;4.93;3.50;;;;;;;;;;4938234;29;20409;-76
2023/06/25 00:27:26;;;;;;;5.80;3.70;;;;;;;;;;4954556;28;20395;-77
2023/06/25 00:29:52;;;;;;;6.63;3.90;;;;;;;;;;4954749;29;20379;-79
2023/06/25 00:32:18;;;;;;;4.47;3.67;;;;;;;;;;4955464;29;20894;-76
2023/06/25 00:34:44;;;;;;;6.70;3.57;;;;;;;;;;4956009;29;20424;-76
2023/06/25 00:37:16;;;;;;;4.50;3.70;;;;;;;;;;4954635;29;20404;-76
2023/06/25 00:39:43;;;;;;;4.97;3.40;;;;;;;;;;4955545;29;20720;-76
2023/06/25 00:42:09;;;;;;;4.87;3.30;;;;;;;;;;4938170;29;20873;-76
2023/06/25 00:44:40;;;;;;;4.80;3.47;;;;;;;;;;4955430;29;20784;-76
2023/06/25 00:47:06;;;;;;;6.93;4.67;;;;;;;;;;4955330;29;20387;-76
2023/06/25 00:49:33;;;;;;;5.20;3.50;;;;;;;;;;4953468;28;20431;-77
2023/06/25 00:52:00;;;;;;;5.77;3.87;;;;;;;;;;4953567;29;20424;-75
2023/06/25 00:54:26;;;;;;;4.73;3.60;;;;;;;;;;4955345;28;20456;-76
2023/06/25 00:56:52;;;;;;;5.50;4.20;;;;;;;;;;4955815;29;20463;-76
2023/06/25 00:59:18;;;;;;;5.77;3.60;;;;;;;;;;4955139;29;20404;-76
2023/06/25 01:01:52;;;;;;;5.60;3.50;;;;;;;;;;4955353;29;20419;-76
2023/06/25 01:04:23;;;;;;;4.30;3.90;;;;;;;;;;4954256;29;20942;-76
2023/06/25 01:06:51;;;;;;;8.53;4.30;;;;;;;;;;4954657;29;20412;-76
2023/06/25 01:09:17;;;;;;;6.90;4.23;;;;;;;;;;4957577;29;20460;-76
2023/06/25 01:12:02;;;;;;;5.13;4.07;;;;;;;;;;4958835;29;20417;-76
2023/06/25 01:14:28;;;;;;;6.20;3.77;;;;;;;;;;4958234;29;20405;-76
2023/06/25 01:16:55;;;;;;;5.90;4.13;;;;;;;;;;4958618;29;20401;-77
2023/06/25 01:19:29;;;;;;;5.20;3.93;;;;;;;;;;4958768;29;20375;-76
2023/06/25 01:22:05;;;;;;;4.00;3.50;;;;;;;;;;4957958;29;20409;-76
2023/06/25 01:24:35;;;;;;;4.50;3.50;;;;;;;;;;4958241;29;20424;-76
2023/06/25 01:27:04;;;;;;;4.00;3.57;;;;;;;;;;4958246;29;20443;-76
2023/06/25 01:29:32;;;;;;;6.73;3.93;;;;;;;;;;4957563;28;20905;-77
2023/06/25 01:31:58;;;;;;;6.30;3.83;;;;;;;;;;4941514;29;20885;-77
2023/06/25 01:34:24;;;;;;;5.83;4.17;;;;;;;;;;4958646;29;20432;-77
2023/06/25 01:36:51;;;;;;;7.40;3.23;;;;;;;;;;4959175;29;20415;-76
2023/06/25 01:39:17;;;;;;;3.73;3.03;;;;;;;;;;4958483;29;20409;-76
2023/06/25 01:41:47;;;;;;;5.70;3.47;;;;;;;;;;4958720;29;21000;-76
2023/06/25 01:44:15;;;;;;;5.90;4.10;;;;;;;;;;4958133;29;20481;-77
2023/06/25 01:46:41;;;;;;;6.20;3.60;;;;;;;;;;4958430;29;20392;-76
2023/06/25 01:49:07;;;;;;;5.33;3.60;;;;;;;;;;4958358;29;20434;-76
2023/06/25 01:51:33;;;;;;;4.83;3.30;;;;;;;;;;4941504;29;20979;-76
2023/06/25 01:53:59;;;;;;;3.77;3.40;;;;;;;;;;4957981;29;20442;-77
2023/06/25 01:56:25;;;;;;;6.70;3.73;;;;;;;;;;4958566;29;20401;-76
2023/06/25 01:58:55;;;;;;;4.63;4.13;;;;;;;;;;4958684;29;20460;-77
2023/06/25 02:01:21;;;;;;;5.70;3.87;;;;;;;;;;4958211;29;20463;-77
2023/06/25 02:03:47;;;;;;;5.47;3.73;;;;;;;;;;4958247;29;20494;-76
2023/06/25 02:06:14;;;;;;;4.37;3.63;;;;;;;;;;4958245;29;20409;-77
2023/06/25 02:08:40;;;;;;;4.60;3.50;;;;;;;;;;4941511;29;20411;-77
2023/06/25 02:11:09;;;;;;;4.47;3.50;;;;;;;;;;4957958;29;20420;-77
2023/06/25 02:13:35;;;;;;;6.40;3.60;;;;;;;;;;4958115;29;20719;-76
2023/06/25 02:16:01;;;;;;;10.30;5.27;;;;;;;;;;4957033;28;20850;-77
2023/06/25 02:18:28;;;;;;;4.77;3.57;;;;;;;;;;4958339;28;20425;-77
2023/06/25 02:20:54;;;;;;;5.47;4.37;;;;;;;;;;4957608;29;20405;-76
2023/06/25 02:23:20;;;;;;;7.33;4.10;;;;;;;;;;4957604;29;20834;-76
2023/06/25 02:25:46;;;;;;;4.67;4.07;;;;;;;;;;4958020;29;20415;-77
2023/06/25 02:28:12;;;;;;;6.43;4.20;;;;;;;;;;4957782;29;20404;-77
2023/06/25 02:30:38;;;;;;;11.60;4.07;;;;;;;;;;4957770;29;20463;-76
2023/06/25 02:33:04;;;;;;;4.03;3.47;;;;;;;;;;4957681;29;20416;-77
2023/06/25 02:35:30;;;;;;;7.03;3.47;;;;;;;;;;4957868;29;20747;-76
2023/06/25 02:37:56;;;;;;;4.40;3.80;;;;;;;;;;4956512;28;20395;-76
2023/06/25 02:40:23;;;;;;;7.40;3.87;;;;;;;;;;4957205;29;20652;-77
2023/06/25 02:42:49;;;;;;;4.47;3.53;;;;;;;;;;4956491;29;20460;-76
2023/06/25 02:45:15;;;;;;;6.73;3.53;;;;;;;;;;4957242;29;20423;-77
2023/06/25 02:47:41;;;;;;;9.00;4.40;;;;;;;;;;4957579;29;20432;-77
2023/06/25 02:50:07;;;;;;;5.23;3.80;;;;;;;;;;4957748;29;20445;-76
2023/06/25 02:52:33;;;;;;;5.17;3.93;;;;;;;;;;4957299;29;20752;-77
2023/06/25 02:54:59;;;;;;;6.17;3.90;;;;;;;;;;4957294;28;20459;-80
2023/06/25 02:57:29;;;;;;;4.53;3.57;;;;;;;;;;4957896;29;20409;-76
2023/06/25 02:59:55;;;;;;;4.53;3.83;;;;;;;;;;4941104;29;20403;-76
2023/06/25 03:02:21;;;;;;;5.03;3.97;;;;;;;;;;4957371;29;20397;-76
2023/06/25 03:04:48;;;;;;;5.30;4.00;;;;;;;;;;4957431;29;20494;-76
2023/06/25 03:07:14;;;;;;;6.40;4.20;;;;;;;;;;4957227;29;20376;-76
2023/06/25 03:09:40;;;;;;;6.57;4.07;;;;;;;;;;4956904;29;20405;-76
2023/06/25 03:12:06;;;;;;;8.27;3.80;;;;;;;;;;4957182;29;20390;-77
2023/06/25 03:14:32;;;;;;;7.40;4.00;;;;;;;;;;4957452;29;20424;-76
2023/06/25 03:16:58;;;;;;;4.63;4.10;;;;;;;;;;4957261;29;20435;-76
2023/06/25 03:19:24;;;;;;;6.80;4.00;;;;;;;;;;4957149;29;20391;-76
2023/06/25 03:21:50;;;;;;;4.23;3.27;;;;;;;;;;4956919;29;20425;-77
2023/06/25 03:24:16;;;;;;;3.90;3.47;;;;;;;;;;4956432;29;20461;-76
2023/06/25 03:26:42;;;;;;;5.20;4.00;;;;;;;;;;4957013;29;20415;-76
2023/06/25 03:29:08;;;;;;;7.23;3.83;;;;;;;;;;4957004;29;20405;-77
2023/06/25 03:31:34;;;;;;;6.93;4.03;;;;;;;;;;4955226;28;20420;-76
2023/06/25 03:34:00;;;;;;;8.07;4.10;;;;;;;;;;4956443;29;20410;-76
2023/06/25 03:36:26;;;;;;;6.00;3.60;;;;;;;;;;4956871;29;20873;-76
2023/06/25 03:38:52;;;;;;;6.77;3.50;;;;;;;;;;4939876;29;20499;-76
2023/06/25 03:41:18;;;;;;;6.70;3.20;;;;;;;;;;4956758;29;20496;-76
2023/06/25 03:43:44;;;;;;;7.83;3.90;;;;;;;;;;4956668;29;20453;-76
2023/06/25 03:46:10;;;;;;;5.80;3.60;;;;;;;;;;4956858;29;20840;-76
2023/06/25 03:48:36;;;;;;;6.20;3.40;;;;;;;;;;4956595;29;20434;-76
2023/06/25 03:51:02;;;;;;;6.33;3.93;;;;;;;;;;4956920;29;20787;-76
2023/06/25 03:53:28;;;;;;;4.90;3.73;;;;;;;;;;4956383;28;20450;-76
2023/06/25 03:55:54;;;;;;;4.00;3.17;;;;;;;;;;4956759;29;20751;-76
2023/06/25 03:58:20;;;;;;;5.50;4.03;;;;;;;;;;4956649;29;20420;-76
2023/06/25 04:00:46;;;;;;;6.00;3.90;;;;;;;;;;4956307;29;20404;-76
2023/06/25 04:03:12;;;;;;;4.57;3.57;;;;;;;;;;4956125;29;20570;-76
2023/06/25 04:05:38;;;;;;;4.30;3.63;;;;;;;;;;4956565;29;20412;-76
2023/06/25 04:08:04;;;;;;;4.80;3.40;;;;;;;;;;4956609;29;20875;-80
2023/06/25 04:10:30;;;;;;;5.20;3.60;;;;;;;;;;4956728;29;20749;-76
2023/06/25 04:12:56;;;;;;;4.70;3.67;;;;;;;;;;4956788;29;20504;-76
2023/06/25 04:15:22;;;;;;;4.20;3.40;;;;;;;;;;4956692;29;20420;-76
2023/06/25 04:17:48;;;;;;;7.07;3.03;;;;;;;;;;4955265;29;20416;-76
2023/06/25 04:20:14;;;;;;;7.30;4.07;;;;;;;;;;4956200;29;20487;-76
2023/06/25 04:22:40;;;;;;;6.07;3.43;;;;;;;;;;4956381;29;20435;-76
2023/06/25 04:25:06;;;;;;;5.03;3.60;;;;;;;;;;4956104;29;20412;-77
2023/06/25 04:27:32;;;;;;;4.97;3.30;;;;;;;;;;4956459;29;20423;-76
2023/06/25 04:29:58;;;;;;;5.07;3.43;;;;;;;;;;4956334;29;20383;-76
2023/06/25 04:32:24;;;;;;;4.80;3.27;;;;;;;;;;4955943;29;20453;-76
2023/06/25 04:34:50;;;;;;;7.43;3.90;;;;;;;;;;4956351;29;20399;-76
2023/06/25 04:37:16;;;;;;;4.90;3.80;;;;;;;;;;4955580;29;20411;-76
2023/06/25 04:39:42;;;;;;;5.77;3.87;;;;;;;;;;4956008;29;20379;-76
2023/06/25 04:42:08;;;;;;;4.30;3.30;;;;;;;;;;4956457;28;20516;-76
2023/06/25 04:44:34;;;;;;;4.17;3.43;;;;;;;;;;4959927;29;20471;-76
2023/06/25 04:47:00;;;;;;;3.93;3.50;;;;;;;;;;4960172;29;20412;-76
2023/06/25 04:49:25;;;;;;;5.10;3.60;;;;;;;;;;4959915;29;20383;-76
2023/06/25 04:51:51;;;;;;;7.80;3.50;;;;;;;;;;4959848;29;20443;-76
2023/06/25 04:54:17;;;;;;;6.50;4.20;;;;;;;;;;4959801;28;20998;-76
2023/06/25 04:56:43;;;;;;;6.50;4.50;;;;;;;;;;4959817;29;20387;-76
2023/06/25 04:59:09;;;;;;;4.93;3.80;;;;;;;;;;4959635;29;20410;-76
2023/06/25 05:01:35;;;;;;;3.77;3.43;;;;;;;;;;4959632;29;20855;-76
2023/06/25 05:04:01;;;;;;;4.60;3.80;;;;;;;;;;4959788;29;20488;-76
2023/06/25 05:06:27;;;;;;;4.50;3.33;;;;;;;;;;4957941;29;20480;-76
2023/06/25 05:08:53;;;;;;;9.53;3.80;;;;;;;;;;4959748;29;20392;-76
2023/06/25 05:11:19;;;;;;;9.37;3.80;;;;;;;;;;4959612;29;20432;-75
2023/06/25 05:13:45;;;;;;;9.83;4.00;;;;;;;;;;4959798;29;20391;-75
2023/06/25 05:16:11;;;;;;;8.03;3.77;;;;;;;;;;4959398;29;20423;-77
2023/06/25 05:18:38;;;;;;;5.50;3.57;;;;;;;;;;4958970;29;20402;-77
2023/06/25 05:21:04;;;;;;;5.10;3.40;;;;;;;;;;4942162;29;20848;-77
2023/06/25 05:23:37;;;;;;;7.47;3.90;;;;;;;;;;4957817;28;20533;-77
2023/06/25 05:26:03;;;;;;;5.53;3.57;;;;;;;;;;4957913;28;20432;-77
2023/06/25 05:28:29;;;;;;;4.10;3.50;;;;;;;;;;4959066;29;20470;-77
2023/06/25 05:30:55;;;;;;;5.73;3.70;;;;;;;;;;4958755;29;20424;-77
2023/06/25 05:33:21;;;;;;;5.70;3.67;;;;;;;;;;4957695;28;20463;-77
2023/06/25 05:35:47;;;;;;;6.03;4.00;;;;;;;;;;4959128;29;20391;-77
2023/06/25 05:38:13;;;;;;;7.60;3.63;;;;;;;;;;4958678;29;20416;-78
2023/06/25 05:40:39;;;;;;;4.80;4.03;;;;;;;;;;4958960;29;20920;-77
2023/06/25 05:43:05;;;;;;;5.13;4.10;;;;;;;;;;4958664;29;20481;-77
2023/06/25 05:45:31;;;;;;;4.33;3.83;;;;;;;;;;4957570;28;20432;-77
2023/06/25 05:47:57;;;;;;;4.63;4.17;;;;;;;;;;4958725;29;20420;-78
2023/06/25 05:50:23;;;;;;;5.67;4.67;;;;;;;;;;4958325;29;20953;-77
2023/06/25 05:52:49;;;;;;;4.80;4.23;;;;;;;;;;4958974;28;20495;-77
2023/06/25 05:55:15;;;;;;;6.30;4.30;;;;;;;;;;4958383;28;20482;-77
2023/06/25 05:57:41;;;;;;;7.43;4.40;;;;;;;;;;4958757;29;20394;-76
2023/06/25 06:00:08;;;;;;;6.73;5.27;;;;;;;;;;4959015;29;20440;-76
2023/06/25 06:02:34;;;;;;;5.57;5.07;;;;;;;;;;4958199;29;20515;-77
2023/06/25 06:05:00;;;;;;;5.93;4.70;;;;;;;;;;4958462;29;20424;-76
2023/06/25 06:07:26;;;;;;;7.50;4.87;;;;;;;;;;4958610;29;20409;-77
2023/06/25 06:09:52;;;;;;;6.40;5.27;;;;;;;;;;4958526;29;20839;-76
2023/06/25 06:12:18;;;;;;;6.27;4.50;;;;;;;;;;4958422;29;20416;-76
2023/06/25 06:14:44;;;;;;;5.43;4.67;;;;;;;;;;4958285;29;20394;-77
2023/06/25 06:17:10;;;;;;;8.97;4.30;;;;;;;;;;4958491;29;20873;-77
2023/06/25 06:19:36;;;;;;;5.13;4.63;;;;;;;;;;4958505;29;20408;-77
2023/06/25 06:22:02;;;;;;;6.43;5.33;;;;;;;;;;4958179;29;20470;-76
2023/06/25 06:24:28;;;;;;;10.73;5.10;;;;;;;;;;4957933;29;20479;-77
2023/06/25 06:26:54;;;;;;;6.10;4.30;;;;;;;;;;4958471;29;20395;-75
2023/06/25 06:29:20;;;;;;;8.83;4.10;;;;;;;;;;4957805;29;20416;-74
2023/06/25 06:31:46;;;;;;;7.80;4.90;;;;;;;;;;4957751;29;20412;-74
2023/06/25 06:34:12;;;;;;;5.67;4.73;;;;;;;;;;4957987;29;20431;-75
2023/06/25 06:36:38;;;;;;;8.90;4.50;;;;;;;;;;4957924;29;20499;-74
2023/06/25 06:39:04;;;;;;;6.00;4.30;;;;;;;;;;4957777;29;20416;-74
2023/06/25 06:41:30;;;;;;;6.20;5.30;;;;;;;;;;4957759;29;20387;-74
2023/06/25 06:44:15;;;;;;;7.17;5.20;;;;;;;;;;4956510;28;20583;-74
2023/06/25 06:46:42;;;;;;;6.07;5.47;;;;;;;;;;4957510;29;20400;-74
2023/06/25 06:49:08;;;;;;;6.37;5.77;;;;;;;;;;4957467;29;20927;-74
2023/06/25 06:51:34;;;;;;;6.07;4.73;;;;;;;;;;4957853;29;20464;-74
2023/06/25 06:54:00;;;;;;;8.70;5.20;;;;;;;;;;4957720;28;20519;-74
2023/06/25 06:56:26;;;;;;;5.73;4.97;;;;;;;;;;4957229;29;20416;-74
2023/06/25 06:58:52;;;;;;;5.77;5.23;;;;;;;;;;4940769;29;20409;-74
2023/06/25 07:01:18;;;;;;;4.90;4.40;;;;;;;;;;4957218;29;20427;-75
2023/06/25 07:03:44;;;;;;;4.93;4.40;;;;;;;;;;4957232;29;20507;-75
2023/06/25 07:06:10;;;;;;;7.50;5.50;;;;;;;;;;4956028;28;20896;-74
2023/06/25 07:08:36;;;;;;;5.40;4.17;;;;;;;;;;4956888;29;20412;-74
2023/06/25 07:11:02;;;;;;;5.87;4.73;;;;;;;;;;4956457;29;20433;-79
2023/06/25 07:13:29;;;;;;;4.70;4.30;;;;;;;;;;4955682;29;20409;-81
2023/06/25 07:15:55;;;;;;;7.43;5.53;;;;;;;;;;4955496;29;20428;-81
2023/06/25 07:18:21;;;;;;;4.70;4.20;;;;;;;;;;4954876;28;20420;-79
2023/06/25 07:20:47;;;;;;;4.80;4.40;;;;;;;;;;4923460;29;20424;-79
2023/06/25 07:23:13;;;;;;;7.00;4.90;;;;;;;;;;4923135;29;20476;-82
2023/06/25 07:25:39;;;;;;;4.50;4.10;;;;;;;;;;4955777;29;20419;-80
2023/06/25 07:28:05;;;;;;;4.97;4.50;;;;;;;;;;4938623;29;20408;-80
2023/06/25 07:30:31;;;;;;;4.80;4.40;;;;;;;;;;4955713;29;20797;-82
2023/06/25 07:32:57;;;;;;;5.07;4.03;;;;;;;;;;4954282;29;20433;-82
2023/06/25 07:35:23;;;;;;;5.60;4.73;;;;;;;;;;4954486;29;20941;-82
2023/06/25 07:37:49;;;;;;;6.83;4.80;;;;;;;;;;4954414;29;20428;-82
2023/06/25 07:40:15;;;;;;;6.20;4.50;;;;;;;;;;4922827;29;20423;-82
2023/06/25 07:42:41;;;;;;;5.37;4.73;;;;;;;;;;4922452;29;20960;-82
2023/06/25 07:45:08;;;;;;;5.30;4.80;;;;;;;;;;4939035;29;20447;-82
2023/06/25 07:47:35;;;;;;;7.07;4.60;;;;;;;;;;4955287;29;20420;-81
2023/06/25 07:50:01;;;;;;;7.63;5.27;;;;;;;;;;4954173;28;20429;-81
2023/06/25 07:52:27;;;;;;;5.63;5.00;;;;;;;;;;4954919;29;20507;-82
2023/06/25 07:54:54;;;;;;;5.17;4.70;;;;;;;;;;4954468;28;20496;-78
2023/06/25 07:57:19;;;;;;;5.03;4.57;;;;;;;;;;4955440;29;20405;-76
2023/06/25 07:59:46;;;;;;;4.90;4.50;;;;;;;;;;4955736;29;20417;-77
2023/06/25 08:02:12;;;;;;;5.17;4.70;;;;;;;;;;4956449;29;20488;-86
2023/06/25 08:04:38;;;;;;;4.43;4.03;;;;;;;;;;4957339;29;20488;-89
2023/06/25 08:07:04;;;;;;;10.93;5.27;;;;;;;;;;4923261;29;21025;-87
2023/06/25 08:09:31;;;;;;;6.00;4.50;;;;;;;;;;4938955;29;20405;-87
2023/06/25 08:11:57;;;;;;;5.97;4.60;;;;;;;;;;4956473;29;20400;-86
2023/06/25 08:14:23;;;;;;;5.70;4.50;;;;;;;;;;4954480;28;20913;-86
2023/06/25 08:16:49;;;;;;;5.47;4.97;;;;;;;;;;4923221;29;20416;-85
2023/06/25 08:19:15;;;;;;;5.33;4.83;;;;;;;;;;4960158;29;20412;-86
2023/06/25 08:21:41;;;;;;;5.10;4.20;;;;;;;;;;4958861;28;20787;-85
2023/06/25 08:24:07;;;;;;;6.37;4.33;;;;;;;;;;4926277;29;20471;-86
2023/06/25 08:26:33;;;;;;;5.10;4.70;;;;;;;;;;4957798;28;20424;-85
2023/06/25 08:28:59;;;;;;;4.83;4.40;;;;;;;;;;4959536;29;20795;-83
2023/06/25 08:31:25;;;;;;;5.73;5.20;;;;;;;;;;4941792;29;20401;-83
2023/06/25 08:33:51;;;;;;;5.20;4.40;;;;;;;;;;4957529;29;20448;-84
2023/06/25 08:36:17;;;;;;;6.90;4.77;;;;;;;;;;4942013;29;20504;-84
2023/06/25 08:38:43;;;;;;;5.90;4.83;;;;;;;;;;4958511;29;20404;-83
2023/06/25 08:41:09;;;;;;;4.97;4.47;;;;;;;;;;4925943;29;20448;-84
2023/06/25 08:43:35;;;;;;;4.70;4.30;;;;;;;;;;4941439;29;20475;-84
2023/06/25 08:46:02;;;;;;;5.50;4.87;;;;;;;;;;4958688;29;20412;-85
2023/06/25 08:48:32;;;;;;;4.70;4.30;;;;;;;;;;4957378;28;20456;-83
2023/06/25 08:51:00;;;;;;;4.60;4.03;;;;;;;;;;4957032;28;20417;-81
2023/06/25 08:53:28;;;;;;;5.03;4.63;;;;;;;;;;4956467;29;20468;-81
2023/06/25 08:55:55;;;;;;;4.97;4.57;;;;;;;;;;4957143;28;20413;-81
2023/06/25 08:58:21;;;;;;;5.30;4.80;;;;;;;;;;4957188;29;20471;-85
2023/06/25 09:00:47;;;;;;;8.10;4.40;;;;;;;;;;4925524;29;20463;-82
2023/06/25 09:03:13;;;;;;;5.37;4.40;;;;;;;;;;4956786;28;20542;-82
2023/06/25 09:05:39;;;;;;;4.80;4.30;;;;;;;;;;4940838;29;20412;-81
2023/06/25 09:08:05;;;;;;;6.23;4.30;;;;;;;;;;4958060;29;20405;-82
2023/06/25 09:10:32;;;;;;;8.17;4.70;;;;;;;;;;4924905;29;20471;-80
2023/06/25 09:13:00;;;;;;;4.70;4.20;;;;;;;;;;4924953;29;20541;-83
2023/06/25 09:15:26;;;;;;;5.43;4.90;;;;;;;;;;4957778;29;20482;-82
2023/06/25 09:17:56;;;;;;;5.17;4.50;;;;;;;;;;4958192;29;20495;-84
2023/06/25 09:20:22;;;;;;;5.47;4.70;;;;;;;;;;4924721;29;20453;-84
2023/06/25 09:22:57;;;;;;;5.30;4.80;;;;;;;;;;4956454;28;20472;-83
2023/06/25 09:25:28;;;;;;;5.40;4.50;;;;;;;;;;4956652;29;20994;-86
2023/06/25 09:27:54;;;;;;;4.00;3.40;;;;;;;;;;4957689;28;20405;-84
2023/06/25 09:30:24;;;;;;;4.80;4.40;;;;;;;;;;4924481;29;20861;-85
2023/06/25 09:32:52;;;;;;;4.63;4.23;;;;;;;;;;4956339;28;20428;-84
2023/06/25 09:35:22;;;;;;;4.90;4.40;;;;;;;;;;4957729;29;20467;-85
2023/06/25 09:37:50;;;;;;;4.50;4.10;;;;;;;;;;4957160;29;20758;-84
2023/06/25 09:40:16;;;;;;;4.47;4.07;;;;;;;;;;4956306;29;20420;-88
2023/06/25 09:42:46;;;;;;;4.90;3.97;;;;;;;;;;4957059;29;20488;-84
2023/06/25 09:45:14;;;;;;;7.20;4.40;;;;;;;;;;4925197;29;20822;-84
2023/06/25 09:47:42;;;;;;;4.73;4.40;;;;;;;;;;4956885;29;20416;-86
2023/06/25 09:50:10;;;;;;;5.03;4.63;;;;;;;;;;4956364;29;20417;-86
2023/06/25 09:52:36;;;;;;;4.60;4.20;;;;;;;;;;4957116;29;20401;-85
2023/06/25 09:55:02;;;;;;;5.17;4.67;;;;;;;;;;4940007;29;20464;-86
2023/06/25 09:57:28;;;;;;;4.37;4.07;;;;;;;;;;4957278;29;20401;-86
2023/06/25 09:59:54;;;;;;;5.00;4.50;;;;;;;;;;4955598;28;20435;-85
2023/06/25 10:02:21;;;;;;;4.70;4.30;;;;;;;;;;4940607;29;20405;-84
2023/06/25 10:04:47;;;;;;;4.40;4.00;;;;;;;;;;4923718;29;20496;-85
2023/06/25 10:07:14;;;;;;;4.23;3.73;;;;;;;;;;4956035;28;20476;-83
2023/06/25 10:09:40;;;;;;;5.10;4.70;;;;;;;;;;4921596;29;20423;-86
2023/06/25 10:12:06;;;;;;;4.57;4.10;;;;;;;;;;4945204;29;20886;-87
2023/06/25 10:14:38;;;;;;;4.40;4.10;;;;;;;;;;4950283;28;20439;-86
2023/06/25 10:17:05;;;;;;;5.10;4.70;;;;;;;;;;4937868;29;20410;-87
2023/06/25 10:19:31;;;;;;;4.53;4.13;;;;;;;;;;4938473;29;20398;-87
2023/06/25 10:22:00;;;;;;;3.83;3.50;;;;;;;;;;4921390;29;20429;-86
2023/06/25 10:24:37;;;;;;;4.60;4.17;;;;;;;;;;4936427;29;20488;-91
2023/06/25 10:27:03;;;;;;;5.10;3.80;;;;;;;;;;4936548;29;20465;-85
2023/06/25 10:29:38;;;;;;;5.10;3.73;;;;;;;;;;4920451;29;20420;-86
2023/06/25 10:32:05;;;;;;;4.23;3.93;;;;;;;;;;4937183;29;20802;-85
2023/06/25 10:34:35;;;;;;;5.97;4.27;;;;;;;;;;4935455;29;20437;-86
2023/06/25 10:37:03;;;;;;;4.80;4.40;;;;;;;;;;4935930;29;20417;-85
2023/06/25 10:39:37;;;;;;;4.23;3.93;;;;;;;;;;4935616;29;20834;-86
2023/06/25 10:42:03;;;;;;;4.10;3.80;;;;;;;;;;4937217;29;20808;-84
2023/06/25 10:44:31;;;;;;;4.33;4.00;;;;;;;;;;4935787;29;20567;-85
2023/06/25 10:47:04;;;;;;;4.63;4.23;;;;;;;;;;4937111;29;20405;-84
2023/06/25 10:49:30;;;;;;;4.43;4.00;;;;;;;;;;4936944;29;20416;-83
2023/06/25 10:51:59;;;;;;;4.43;4.00;;;;;;;;;;4920387;29;20493;-83
2023/06/25 10:54:25;;;;;;;3.83;3.53;;;;;;;;;;4935220;29;20469;-84
2023/06/25 10:56:54;;;;;;;4.60;4.20;;;;;;;;;;4936015;29;20438;-83
2023/06/25 10:59:23;;;;;;;4.93;4.00;;;;;;;;;;4937364;29;20484;-84
2023/06/25 11:01:51;;;;;;;4.40;4.10;;;;;;;;;;4936925;29;20421;-83
2023/06/25 11:04:17;;;;;;;4.73;4.33;;;;;;;;;;4935626;29;20897;-83
2023/06/25 11:06:43;;;;;;;4.20;3.90;;;;;;;;;;4935378;29;20428;-83
2023/06/25 11:09:10;;;;;;;4.87;4.47;;;;;;;;;;4935772;29;20424;-83
2023/06/25 11:11:37;;;;;;;4.20;3.90;;;;;;;;;;4937328;29;20418;-85
2023/06/25 11:14:03;;;;;;;4.33;3.93;;;;;;;;;;4938180;29;20409;-85
2023/06/25 11:16:29;;;;;;;4.10;3.80;;;;;;;;;;4937839;29;20437;-89
2023/06/25 11:18:55;;;;;;;4.37;4.00;;;;;;;;;;4937378;29;20505;-86
2023/06/25 11:21:21;;;;;;;4.80;4.40;;;;;;;;;;4937117;29;20486;-84
2023/06/25 11:23:47;;;;;;;4.27;3.97;;;;;;;;;;4919877;29;20473;-86
2023/06/25 11:26:17;;;;;;;4.00;3.70;;;;;;;;;;4936241;29;20414;-86
2023/06/25 11:28:43;;;;;;;6.30;4.47;;;;;;;;;;4937110;29;20410;-86
2023/06/25 11:31:09;;;;;;;5.73;4.27;;;;;;;;;;4935994;29;20772;-86
2023/06/25 11:33:35;;;;;;;4.60;4.10;;;;;;;;;;4919854;29;20429;-86
2023/06/25 11:36:09;;;;;;;4.50;4.10;;;;;;;;;;4920522;29;20418;-88
2023/06/25 11:38:35;;;;;;;4.73;4.33;;;;;;;;;;4935477;29;20519;-84
2023/06/25 11:41:01;;;;;;;5.40;4.20;;;;;;;;;;4935682;29;20516;-84
2023/06/25 11:43:28;;;;;;;3.80;3.40;;;;;;;;;;4935423;29;20894;-84
2023/06/25 11:45:59;;;;;;;4.17;3.87;;;;;;;;;;4919686;29;20455;-84
2023/06/25 11:48:25;;;;;;;5.60;4.10;;;;;;;;;;4935070;29;20416;-84
2023/06/25 11:50:52;;;;;;;4.43;4.13;;;;;;;;;;4934844;29;20779;-86
2023/06/25 11:53:18;;;;;;;4.40;4.00;;;;;;;;;;4919090;29;20516;-85
2023/06/25 11:55:44;;;;;;;4.53;4.07;;;;;;;;;;4935860;29;20406;-84
2023/06/25 11:58:10;;;;;;;4.10;3.80;;;;;;;;;;4935032;29;20785;-83
2023/06/25 12:00:36;;;;;;;4.77;4.00;;;;;;;;;;4918917;29;20421;-83
2023/06/25 12:03:03;;;;;;;4.67;4.33;;;;;;;;;;4936067;29;20575;-84
2023/06/25 12:05:28;;;;;;;4.83;4.37;;;;;;;;;;4936470;29;20412;-84
2023/06/25 12:07:54;;;;;;;3.67;3.43;;;;;;;;;;4918952;29;20789;-84
2023/06/25 12:10:20;;;;;;;4.03;3.73;;;;;;;;;;4919246;29;20449;-84
2023/06/25 12:12:47;;;;;;;4.10;3.80;;;;;;;;;;4918797;29;20401;-84
2023/06/25 12:15:13;;;;;;;4.20;3.90;;;;;;;;;;4935838;29;20419;-83
2023/06/25 12:17:39;;;;;;;3.80;3.50;;;;;;;;;;4918712;29;20417;-85
2023/06/25 12:20:06;;;;;;;4.37;4.00;;;;;;;;;;4936100;29;20420;-84
2023/06/25 12:22:31;;;;;;;4.37;4.03;;;;;;;;;;4935884;29;20414;-84
2023/06/25 12:24:57;;;;;;;4.33;4.03;;;;;;;;;;4952674;29;20482;-84
2023/06/25 12:27:23;;;;;;;4.10;3.80;;;;;;;;;;4954861;29;20455;-83
2023/06/25 12:29:49;;;;;;;4.73;4.10;;;;;;;;;;4953404;29;20420;-84
2023/06/25 12:32:15;;;;;;;4.60;4.20;;;;;;;;;;4953303;29;20264;-79
2023/06/25 12:34:41;;;;;;;5.47;4.17;;;;;;;;;;4953070;29;20428;-79
2023/06/25 12:37:07;;;;;;;4.17;3.67;;;;;;;;;;4937766;29;20420;-79
2023/06/25 12:39:33;;;;;;;5.00;4.50;;;;;;;;;;4954717;29;20413;-79
2023/06/25 12:41:59;;;;;;;4.93;4.53;;;;;;;;;;4937317;29;20580;-79
2023/06/25 12:44:25;;;;;;;4.17;3.87;;;;;;;;;;4953321;29;20468;-78
2023/06/25 12:46:51;;;;;;;4.40;4.00;;;;;;;;;;4954380;29;20527;-79
2023/06/25 12:49:17;;;;;;;4.67;4.27;;;;;;;;;;4937538;29;20775;-79
2023/06/25 12:51:43;;;;;;;4.00;3.70;;;;;;;;;;4953199;29;20429;-77
2023/06/25 12:54:09;;;;;;;4.30;4.00;;;;;;;;;;4954519;29;20492;-79
2023/06/25 12:56:35;;;;;;;4.30;4.00;;;;;;;;;;4937534;29;20776;-79
2023/06/25 12:59:01;;;;;;;4.63;3.80;;;;;;;;;;4954490;29;20491;-79
2023/06/25 13:01:27;;;;;;;3.57;3.30;;;;;;;;;;4954323;29;20503;-79
2023/06/25 13:03:53;;;;;;;4.00;3.70;;;;;;;;;;4956080;28;20519;-79
2023/06/25 13:06:20;;;;;;;3.83;3.63;;;;;;;;;;4957991;29;20428;-79
2023/06/25 13:08:46;;;;;;;4.47;4.10;;;;;;;;;;4956485;29;20420;-79
2023/06/25 13:11:12;;;;;;;4.80;4.40;;;;;;;;;;4956923;29;20770;-79
2023/06/25 13:13:38;;;;;;;3.77;3.47;;;;;;;;;;4956253;29;20416;-80
2023/06/25 13:16:04;;;;;;;4.53;4.13;;;;;;;;;;4940691;29;20420;-79
2023/06/25 13:18:30;;;;;;;4.47;4.07;;;;;;;;;;4958172;29;20400;-85
2023/06/25 13:20:56;;;;;;;4.77;4.17;;;;;;;;;;4940601;29;20992;-87
2023/06/25 13:23:22;;;;;;;6.47;4.10;;;;;;;;;;4956655;29;20480;-87
2023/06/25 13:25:48;;;;;;;7.40;3.83;;;;;;;;;;4956230;29;20421;-86
2023/06/25 13:28:15;;;;;;;4.20;3.90;;;;;;;;;;4957492;29;20822;-87
2023/06/25 13:30:41;;;;;;;4.63;4.23;;;;;;;;;;4957487;29;20396;-88
2023/06/25 13:33:07;;;;;;;6.30;4.40;;;;;;;;;;4940567;29;20444;-89
2023/06/25 13:35:33;;;;;;;3.60;3.33;;;;;;;;;;4940723;29;20425;-87
2023/06/25 13:37:59;;;;;;;4.67;4.30;;;;;;;;;;4956126;29;20421;-87
2023/06/25 13:40:25;;;;;;;4.77;4.37;;;;;;;;;;4940357;29;20440;-88
2023/06/25 13:42:51;;;;;;;4.23;3.83;;;;;;;;;;4939920;29;20487;-89
2023/06/25 13:45:17;;;;;;;4.27;3.90;;;;;;;;;;4956018;29;20507;-88
2023/06/25 13:47:43;;;;;;;5.87;4.50;;;;;;;;;;4955927;29;20416;-88
2023/06/25 13:50:09;;;;;;;4.97;4.57;;;;;;;;;;4940290;29;20408;-89
2023/06/25 13:52:35;;;;;;;4.53;3.97;;;;;;;;;;4957229;29;20411;-89
2023/06/25 13:55:01;;;;;;;4.80;4.20;;;;;;;;;;4956832;29;20523;-88
2023/06/25 13:57:27;;;;;;;5.13;4.60;;;;;;;;;;4939875;29;20428;-87
2023/06/25 13:59:53;;;;;;;4.13;3.73;;;;;;;;;;4940253;29;20405;-87
2023/06/25 14:02:19;;;;;;;5.07;4.00;;;;;;;;;;4955900;29;20507;-87
2023/06/25 14:04:45;;;;;;;4.10;3.80;;;;;;;;;;4939714;29;20488;-86
2023/06/25 14:07:11;;;;;;;4.10;3.80;;;;;;;;;;4940033;29;20417;-87
2023/06/25 14:09:37;;;;;;;4.40;4.10;;;;;;;;;;4955576;29;20901;-88
2023/06/25 14:12:03;;;;;;;4.77;4.40;;;;;;;;;;4939513;29;20187;-87
2023/06/25 14:14:29;;;;;;;4.80;4.40;;;;;;;;;;4955111;28;20841;-87
2023/06/25 14:16:55;;;;;;;4.67;4.27;;;;;;;;;;4939766;29;20436;-87
2023/06/25 14:19:20;;;;;;;5.00;4.50;;;;;;;;;;4957053;29;20768;-87
2023/06/25 14:21:46;;;;;;;5.43;3.70;;;;;;;;;;4939343;29;20424;-85
2023/06/25 14:24:12;;;;;;;5.13;4.63;;;;;;;;;;4955516;29;20527;-86
2023/06/25 14:26:38;;;;;;;5.13;4.63;;;;;;;;;;4939750;29;20412;-86
2023/06/25 14:29:04;;;;;;;4.90;4.50;;;;;;;;;;4955633;29;20487;-85
2023/06/25 14:31:30;;;;;;;4.10;3.80;;;;;;;;;;4939965;29;20444;-78
2023/06/25 14:33:56;;;;;;;4.23;3.93;;;;;;;;;;4939069;29;21110;-78
2023/06/25 14:36:22;;;;;;;4.40;4.00;;;;;;;;;;4974745;28;20422;-78
2023/06/25 14:38:48;;;;;;;4.40;4.10;;;;;;;;;;4974080;28;20412;-78